This is the latest recevied weather packets stored in our database for station/object KF0JHJ. If no packets are shown the sender has not sent any weather packets the latest 1 day(s).
| Time | Temp. | Humidity | Pressure | Rain* | Wind** | Luminosity | Snow |
|---|---|---|---|---|---|---|---|
| 1778066124 | 1.67° C | 76% | 1013.2 hPa | - | - | 0 W/m² | - |
| 1778064609 | 1.67° C | 76% | 1012.8 hPa | - | - | 0 W/m² | - |
| 1778063398 | 0.56° C | 80% | 1013.3 hPa | - | - | 0 W/m² | - |
| 1778062187 | 0.56° C | 79% | 1013.1 hPa | - | - | 0 W/m² | - |
| 1778061885 | 0.56° C | 79% | 1013 hPa | - | - | 0 W/m² | - |
| 1778061281 | 0.56° C | 78% | 1013 hPa | - | - | 0 W/m² | - |
| 1778059768 | 0.56° C | 78% | 1012.7 hPa | - | - | 0 W/m² | - |
| 1778059466 | 0.56° C | 78% | 1012.4 hPa | - | - | 0 W/m² | - |
| 1778059162 | 0.56° C | 77% | 1012.6 hPa | - | - | 0 W/m² | - |
| 1778058557 | 0° C | 79% | 1012.7 hPa | - | - | 0 W/m² | - |
| 1778058255 | -0.56° C | 81% | 1012.6 hPa | - | - | 0 W/m² | - |
| 1778057951 | -0.56° C | 80% | 1012.7 hPa | - | - | 0 W/m² | - |
| 1778057648 | -0.56° C | 81% | 1012.6 hPa | - | - | 0 W/m² | - |
| 1778057344 | -1.11° C | 80% | 1012.7 hPa | - | - | 0 W/m² | - |
| 1778056132 | -1.11° C | 80% | 1012.3 hPa | - | - | 0 W/m² | - |
| 1778054618 | -1.11° C | 78% | 1012.4 hPa | - | - | 0 W/m² | - |
| 1778054316 | -0.56° C | 78% | 1012.4 hPa | - | - | 0 W/m² | - |
| 1778053406 | -0.56° C | 77% | 1012.6 hPa | - | - | 0 W/m² | - |
| 1778052801 | -0.56° C | 77% | 1012.3 hPa | - | - | 0 W/m² | - |
| 1778052498 | -0.56° C | 77% | 1012.2 hPa | - | - | 0 W/m² | - |
| 1778051893 | -0.56° C | 75% | 1012.2 hPa | - | - | 0 W/m² | - |
| 1778051591 | 0° C | 74% | 1012 hPa | - | - | 0 W/m² | - |
| 1778051288 | 0° C | 73% | 1012.1 hPa | - | - | 0 W/m² | - |
| 1778050985 | 0.56° C | 73% | 1012.1 hPa | - | - | 0 W/m² | - |
| 1778050682 | 0.56° C | 72% | 1012.3 hPa | - | - | 0 W/m² | - |
* Rain since midnight (hover to see other rain measurements)
** Current wind speed in m/s (hover to see current wind gust speed)